Terminal Aerodrome Forecast
Issued by NWS

Home | Current Version | Previous Version | Text Only | Print | Product List | Glossary On
Versions: 1 2 3 4 5 6 7 8 9 10 11 12 13 14 15 16 17 18 19 20
000
FTUS45 KLKN 250210 AAA
TAFEKO
TAF AMD
KEKO 250210Z 2502/2524 25013G20KT 1/2SM SN VV005
     FM250300 25012KT P6SM VCSH BKN050
     FM250600 VRB06KT P6SM BKN050
     FM252000 24010KT P6SM SCT100=

USA.gov is the U.S. government's official web portal to all federal, state and local government web resources and services.